Time;durP1;ratioP1;P1;durP2;ratioP2;P2;SDS_P1;SDS_P2;PMS_P1;PMS_P2;Temp;Humidity;BMP_temperature;BMP_pressure;BME280_temperature;BME280_humidity;BME280_pressure;Samples;Min_cycle;Max_cycle;Signal;HPM_P1;HPM_P2
2021/12/24 00:01:05;;;;;;;2.70;1.08;;;;;;;;;;5030930;28;20457;-77
2021/12/24 00:03:30;;;;;;;2.78;1.40;;;;;;;;;;5024574;28;20104;-81
2021/12/24 00:05:56;;;;;;;2.10;1.40;;;;;;;;;;5032184;28;20517;-80
2021/12/24 00:08:21;;;;;;;2.55;1.40;;;;;;;;;;5029692;28;20037;-81
2021/12/24 00:10:51;;;;;;;3.55;1.60;;;;;;;;;;5029662;28;20029;-85
2021/12/24 00:13:17;;;;;;;2.08;1.17;;;;;;;;;;5028391;28;20390;-83
2021/12/24 00:36:55;;;;;;;2.47;1.20;;;;;;;;;;5021470;28;20036;-75
2021/12/24 00:39:20;;;;;;;2.30;1.55;;;;;;;;;;5023993;28;20025;-76
2021/12/24 00:41:45;;;;;;;2.50;1.25;;;;;;;;;;5020528;28;20033;-75
2021/12/24 00:44:10;;;;;;;3.13;1.40;;;;;;;;;;5020774;28;20064;-77
2021/12/24 00:46:36;;;;;;;2.65;1.30;;;;;;;;;;5025807;28;20052;-76
2021/12/24 00:49:01;;;;;;;3.13;1.50;;;;;;;;;;5026218;28;20029;-76
2021/12/24 00:51:43;;;;;;;3.30;1.35;;;;;;;;;;5028969;28;20456;-76
2021/12/24 00:56:53;;;;;;;2.30;1.10;;;;;;;;;;5015990;28;20048;-76
2021/12/24 00:59:18;;;;;;;3.97;1.27;;;;;;;;;;5026989;28;20033;-76
2021/12/24 01:01:43;;;;;;;3.25;1.30;;;;;;;;;;5026861;28;20428;-76
2021/12/24 01:04:08;;;;;;;3.22;1.20;;;;;;;;;;5028102;28;20029;-76
2021/12/24 01:06:33;;;;;;;3.15;1.50;;;;;;;;;;5023243;28;20044;-77
2021/12/24 01:08:58;;;;;;;2.55;1.30;;;;;;;;;;5028558;28;20036;-77
2021/12/24 01:11:26;;;;;;;3.67;1.40;;;;;;;;;;5028174;28;20097;-77
2021/12/24 01:13:51;;;;;;;2.90;1.35;;;;;;;;;;5021749;28;20041;-75
2021/12/24 01:16:32;;;;;;;3.00;1.35;;;;;;;;;;5028689;28;20595;-76
2021/12/24 01:19:05;;;;;;;3.10;1.67;;;;;;;;;;5025765;28;20029;-76
2021/12/24 01:24:00;;;;;;;2.17;1.30;;;;;;;;;;5028561;28;20410;-76
2021/12/24 01:29:19;;;;;;;2.60;1.40;;;;;;;;;;5021376;28;20068;-75
2021/12/24 01:40:19;;;;;;;3.05;1.40;;;;;;;;;;5021445;28;20035;-76
2021/12/24 01:42:48;;;;;;;3.17;1.25;;;;;;;;;;5030184;28;20388;-75
2021/12/24 01:45:24;;;;;;;2.33;1.33;;;;;;;;;;5026170;28;20018;-76
2021/12/24 01:47:50;;;;;;;3.50;1.27;;;;;;;;;;5027495;28;20033;-75
2021/12/24 01:50:15;;;;;;;4.38;1.50;;;;;;;;;;5020534;28;20029;-73
2021/12/24 01:52:41;;;;;;;1.90;1.10;;;;;;;;;;5027253;28;20063;-76
2021/12/24 01:55:07;;;;;;;3.60;1.20;;;;;;;;;;5030139;28;20029;-75
2021/12/24 01:57:32;;;;;;;3.13;1.23;;;;;;;;;;5030692;28;20112;-76
2021/12/24 02:00:03;;;;;;;3.70;1.23;;;;;;;;;;5029489;28;20096;-76
2021/12/24 02:02:28;;;;;;;2.85;1.30;;;;;;;;;;5040029;28;20037;-76
2021/12/24 02:04:54;;;;;;;2.38;1.13;;;;;;;;;;5032912;28;20025;-75
2021/12/24 02:07:19;;;;;;;2.50;1.10;;;;;;;;;;5024095;28;20091;-76
2021/12/24 02:09:44;;;;;;;2.25;1.45;;;;;;;;;;5030765;28;20045;-77
2021/12/24 02:12:10;;;;;;;2.90;1.30;;;;;;;;;;5030342;28;20060;-75
2021/12/24 02:14:38;;;;;;;3.63;1.30;;;;;;;;;;5024054;28;20063;-75
2021/12/24 02:30:42;;;;;;;3.22;1.15;;;;;;;;;;5019505;28;20040;-75
2021/12/24 02:33:07;;;;;;;2.80;1.40;;;;;;;;;;5024911;28;20044;-74
2021/12/24 02:35:33;;;;;;;2.88;1.02;;;;;;;;;;5029396;28;20021;-75
2021/12/24 02:37:58;;;;;;;2.25;1.00;;;;;;;;;;5026828;28;20030;-75
2021/12/24 02:40:23;;;;;;;2.25;1.20;;;;;;;;;;5038243;28;20018;-75
2021/12/24 02:42:53;;;;;;;2.22;1.30;;;;;;;;;;5031685;28;20427;-76
2021/12/24 02:45:18;;;;;;;2.83;1.08;;;;;;;;;;5027696;28;20037;-77
2021/12/24 02:48:09;;;;;;;3.08;1.30;;;;;;;;;;5024519;28;20041;-77
2021/12/24 02:55:59;;;;;;;4.75;1.58;;;;;;;;;;5023498;28;20079;-75
2021/12/24 02:58:24;;;;;;;1.98;1.02;;;;;;;;;;5017534;28;20017;-76
2021/12/24 03:00:49;;;;;;;3.20;1.30;;;;;;;;;;5020739;28;20025;-76
2021/12/24 03:03:14;;;;;;;3.42;1.23;;;;;;;;;;5026079;28;20029;-77
2021/12/24 03:05:40;;;;;;;3.47;1.30;;;;;;;;;;5024341;28;20776;-75
2021/12/24 03:08:06;;;;;;;1.88;1.17;;;;;;;;;;5027387;28;20051;-75
2021/12/24 03:10:31;;;;;;;3.15;1.40;;;;;;;;;;5025352;28;20048;-76
2021/12/24 03:12:56;;;;;;;2.55;1.20;;;;;;;;;;5026387;28;20037;-75
2021/12/24 03:15:23;;;;;;;2.33;1.10;;;;;;;;;;5024119;28;20116;-74
2021/12/24 03:17:53;;;;;;;3.75;1.10;;;;;;;;;;5017967;28;20690;-75
2021/12/24 03:20:19;;;;;;;2.85;1.15;;;;;;;;;;5028232;28;20147;-76
2021/12/24 03:23:03;;;;;;;2.80;1.20;;;;;;;;;;5027717;28;20033;-76
2021/12/24 03:25:29;;;;;;;1.67;1.15;;;;;;;;;;5022597;28;20048;-75
2021/12/24 03:27:54;;;;;;;2.53;1.13;;;;;;;;;;5026830;28;20022;-76
2021/12/24 03:30:19;;;;;;;2.90;1.17;;;;;;;;;;5017936;28;20763;-74
2021/12/24 03:32:44;;;;;;;2.42;1.00;;;;;;;;;;5024511;28;20076;-75
2021/12/24 03:35:10;;;;;;;3.08;1.38;;;;;;;;;;5026536;28;20104;-76
2021/12/24 03:37:35;;;;;;;2.50;1.38;;;;;;;;;;5030160;28;20024;-76
2021/12/24 03:40:00;;;;;;;2.33;1.02;;;;;;;;;;5024980;28;20443;-78
2021/12/24 03:42:25;;;;;;;1.77;1.02;;;;;;;;;;5026603;28;20064;-73
2021/12/24 03:45:04;;;;;;;1.48;1.05;;;;;;;;;;5027490;28;20422;-76
2021/12/24 03:47:35;;;;;;;3.97;1.27;;;;;;;;;;5022758;28;20507;-77
2021/12/24 03:50:06;;;;;;;3.03;1.30;;;;;;;;;;5029728;28;20096;-74
2021/12/24 03:55:15;;;;;;;2.78;1.10;;;;;;;;;;5016704;28;20489;-76
2021/12/24 03:57:40;;;;;;;2.67;0.90;;;;;;;;;;5028354;28;20029;-79
2021/12/24 04:00:11;;;;;;;2.38;1.10;;;;;;;;;;5027660;28;20032;-76
2021/12/24 04:02:37;;;;;;;1.67;0.90;;;;;;;;;;5024155;28;20052;-76
2021/12/24 04:05:02;;;;;;;1.90;1.10;;;;;;;;;;5023034;28;20056;-75
2021/12/24 04:07:28;;;;;;;2.72;1.08;;;;;;;;;;5024060;28;20103;-77
2021/12/24 04:10:02;;;;;;;2.80;1.05;;;;;;;;;;5028715;28;20025;-75
2021/12/24 04:12:28;;;;;;;1.55;1.02;;;;;;;;;;5016412;28;20575;-75
2021/12/24 04:14:53;;;;;;;2.08;1.08;;;;;;;;;;5029197;28;20029;-75
2021/12/24 04:17:19;;;;;;;3.42;1.10;;;;;;;;;;5029628;28;20052;-76
2021/12/24 04:24:51;;;;;;;2.97;1.63;;;;;;;;;;5029327;28;20143;-75
2021/12/24 04:25:18;;;;;;;2.63;1.00;;;;;;;;;;5018973;28;20120;-75
2021/12/24 04:27:43;;;;;;;2.25;1.13;;;;;;;;;;5020594;28;20436;-76
2021/12/24 04:30:16;;;;;;;1.75;0.90;;;;;;;;;;5024088;28;20021;-77
2021/12/24 04:32:55;;;;;;;0.80;0.60;;;;;;;;;;5026816;28;20037;-76
2021/12/24 04:51:33;;;;;;;2.13;0.90;;;;;;;;;;5028918;28;20036;-75
2021/12/24 05:05:03;;;;;;;2.42;1.00;;;;;;;;;;5014719;28;20581;-76
2021/12/24 05:07:57;;;;;;;3.05;1.13;;;;;;;;;;5019436;28;20481;-75
2021/12/24 05:10:13;;;;;;;2.38;0.80;;;;;;;;;;5021145;28;20049;-76
2021/12/24 05:12:38;;;;;;;2.38;0.80;;;;;;;;;;5023579;28;20065;-75
2021/12/24 05:15:04;;;;;;;3.80;0.90;;;;;;;;;;5022861;28;20978;-76
2021/12/24 05:17:46;;;;;;;1.25;0.80;;;;;;;;;;5021816;28;20536;-75
2021/12/24 05:22:55;;;;;;;1.77;0.90;;;;;;;;;;5020918;28;20041;-75
2021/12/24 05:25:21;;;;;;;2.25;0.80;;;;;;;;;;5004015;28;20034;-77
2021/12/24 05:27:47;;;;;;;2.42;0.98;;;;;;;;;;5013875;28;20101;-76
2021/12/24 05:30:12;;;;;;;2.03;0.80;;;;;;;;;;5024326;28;20036;-76
2021/12/24 05:32:37;;;;;;;2.95;0.80;;;;;;;;;;5024141;28;20424;-75
2021/12/24 05:35:03;;;;;;;3.33;0.90;;;;;;;;;;5017967;28;20024;-75
2021/12/24 05:37:28;;;;;;;1.85;0.80;;;;;;;;;;5023321;28;20048;-74
2021/12/24 05:39:53;;;;;;;3.35;1.15;;;;;;;;;;5015640;28;20033;-76
2021/12/24 05:42:19;;;;;;;1.13;0.80;;;;;;;;;;5022889;28;20444;-76
2021/12/24 05:44:44;;;;;;;2.13;0.90;;;;;;;;;;5020258;28;20018;-76
2021/12/24 05:47:09;;;;;;;2.47;0.80;;;;;;;;;;5027484;28;20040;-75
2021/12/24 05:49:34;;;;;;;1.88;0.80;;;;;;;;;;5020099;28;20022;-77
2021/12/24 05:52:00;;;;;;;1.52;0.75;;;;;;;;;;5029022;28;20408;-75
2021/12/24 05:54:25;;;;;;;2.25;0.90;;;;;;;;;;5016144;28;20731;-76
2021/12/24 05:56:50;;;;;;;2.33;1.08;;;;;;;;;;5028348;28;20367;-75
2021/12/24 05:59:15;;;;;;;1.67;0.80;;;;;;;;;;5024203;28;20027;-75
2021/12/24 06:01:41;;;;;;;2.05;0.80;;;;;;;;;;5028367;28;20159;-75
2021/12/24 06:04:06;;;;;;;2.05;0.90;;;;;;;;;;5027651;28;20132;-75
2021/12/24 06:06:31;;;;;;;2.50;0.82;;;;;;;;;;5027759;28;20041;-77
2021/12/24 06:08:56;;;;;;;1.95;0.93;;;;;;;;;;5026442;28;20144;-77
2021/12/24 06:11:22;;;;;;;1.52;0.80;;;;;;;;;;5026464;28;20037;-75
2021/12/24 06:13:51;;;;;;;1.45;0.85;;;;;;;;;;5021628;28;20037;-76
2021/12/24 06:16:18;;;;;;;2.33;1.00;;;;;;;;;;5022319;28;20371;-75
2021/12/24 06:18:43;;;;;;;1.65;0.82;;;;;;;;;;5027240;28;20025;-76
2021/12/24 06:21:08;;;;;;;2.20;0.80;;;;;;;;;;5025057;28;20021;-76
2021/12/24 06:23:35;;;;;;;2.55;1.10;;;;;;;;;;5025175;28;20033;-75
2021/12/24 06:26:01;;;;;;;1.52;0.80;;;;;;;;;;5017675;28;20097;-75
2021/12/24 06:28:27;;;;;;;2.58;1.00;;;;;;;;;;5024724;28;20064;-75
2021/12/24 06:30:53;;;;;;;1.45;0.90;;;;;;;;;;5029148;28;20088;-76
2021/12/24 06:33:18;;;;;;;1.77;1.00;;;;;;;;;;5026246;28;20386;-76
2021/12/24 06:35:44;;;;;;;1.00;0.60;;;;;;;;;;5024544;28;20532;-76
2021/12/24 06:38:09;;;;;;;2.80;0.80;;;;;;;;;;5027249;28;20346;-75
2021/12/24 06:40:35;;;;;;;2.63;0.93;;;;;;;;;;5018115;28;20017;-75
2021/12/24 06:43:00;;;;;;;2.55;0.82;;;;;;;;;;5017673;28;20515;-76
2021/12/24 06:45:26;;;;;;;2.20;1.13;;;;;;;;;;5021049;28;21203;-75
2021/12/24 06:47:52;;;;;;;2.40;1.00;;;;;;;;;;5019209;28;20096;-75
2021/12/24 06:50:18;;;;;;;1.80;0.73;;;;;;;;;;5022535;28;20037;-76
2021/12/24 06:52:43;;;;;;;1.08;0.77;;;;;;;;;;5025535;28;20033;-75
2021/12/24 06:55:10;;;;;;;2.50;1.02;;;;;;;;;;5018517;28;20105;-76
2021/12/24 06:57:36;;;;;;;1.40;0.88;;;;;;;;;;5025734;28;20033;-76
2021/12/24 07:00:02;;;;;;;1.50;0.80;;;;;;;;;;5022376;28;20459;-75
2021/12/24 07:02:27;;;;;;;2.92;1.10;;;;;;;;;;5011798;28;20026;-75
2021/12/24 07:04:52;;;;;;;1.45;0.90;;;;;;;;;;5028069;28;20094;-76
2021/12/24 07:07:17;;;;;;;2.70;1.10;;;;;;;;;;5021913;28;20527;-74
2021/12/24 07:09:43;;;;;;;2.00;1.00;;;;;;;;;;5031827;28;20060;-75
2021/12/24 07:12:09;;;;;;;2.53;1.23;;;;;;;;;;5033653;28;20049;-75
2021/12/24 07:14:37;;;;;;;3.05;0.82;;;;;;;;;;5019853;28;20204;-75
2021/12/24 07:17:02;;;;;;;2.22;1.10;;;;;;;;;;5025205;28;20112;-75
2021/12/24 07:19:28;;;;;;;2.33;1.30;;;;;;;;;;5029597;28;20544;-74
2021/12/24 07:21:53;;;;;;;2.42;0.98;;;;;;;;;;5021476;28;20021;-75
2021/12/24 07:24:19;;;;;;;2.95;1.15;;;;;;;;;;5024813;28;20028;-78
2021/12/24 07:26:44;;;;;;;2.47;1.55;;;;;;;;;;5022542;28;20060;-76
2021/12/24 07:29:09;;;;;;;2.80;1.20;;;;;;;;;;5023726;28;20465;-76
2021/12/24 07:31:34;;;;;;;1.35;0.90;;;;;;;;;;5022512;28;20042;-77
2021/12/24 07:34:00;;;;;;;2.38;1.15;;;;;;;;;;5023692;28;20030;-75
2021/12/24 07:36:25;;;;;;;2.13;1.23;;;;;;;;;;5026478;28;20029;-76
2021/12/24 07:38:50;;;;;;;2.63;1.27;;;;;;;;;;5020086;28;20021;-74
2021/12/24 07:41:15;;;;;;;2.17;1.10;;;;;;;;;;5025311;28;20014;-74
2021/12/24 07:43:41;;;;;;;2.22;1.30;;;;;;;;;;5017142;28;20042;-75
2021/12/24 07:46:06;;;;;;;2.33;1.20;;;;;;;;;;5028431;28;20075;-76
2021/12/24 07:48:33;;;;;;;1.95;1.05;;;;;;;;;;5023973;28;20025;-76
2021/12/24 07:53:25;;;;;;;1.88;1.20;;;;;;;;;;5022956;28;20409;-63
2021/12/24 07:55:50;;;;;;;1.92;1.20;;;;;;;;;;5023551;28;20032;-62
2021/12/24 07:58:17;;;;;;;2.03;1.10;;;;;;;;;;5020883;28;20487;-62
2021/12/24 08:00:43;;;;;;;3.55;1.10;;;;;;;;;;5019844;28;20025;-62
2021/12/24 08:03:08;;;;;;;2.55;1.30;;;;;;;;;;5023936;28;20425;-64
2021/12/24 08:05:35;;;;;;;2.05;1.20;;;;;;;;;;5024766;28;20064;-61
2021/12/24 08:08:01;;;;;;;4.78;1.38;;;;;;;;;;5023656;28;20117;-63
2021/12/24 08:10:27;;;;;;;2.28;1.00;;;;;;;;;;5021148;28;20405;-62
2021/12/24 08:12:53;;;;;;;1.85;1.00;;;;;;;;;;5021607;28;20091;-62
2021/12/24 08:15:18;;;;;;;2.53;1.23;;;;;;;;;;5028962;28;20461;-62
2021/12/24 08:17:44;;;;;;;1.92;1.10;;;;;;;;;;5029727;28;20815;-62
2021/12/24 08:20:09;;;;;;;2.13;1.13;;;;;;;;;;5021089;28;20029;-62
2021/12/24 08:22:35;;;;;;;2.08;0.90;;;;;;;;;;5026263;28;20125;-64
2021/12/24 08:25:00;;;;;;;1.88;1.10;;;;;;;;;;5028788;28;20029;-63
2021/12/24 08:27:26;;;;;;;1.65;1.20;;;;;;;;;;5029165;28;20025;-63
2021/12/24 08:29:52;;;;;;;1.80;0.90;;;;;;;;;;5022479;28;20528;-64
2021/12/24 08:32:17;;;;;;;1.63;1.10;;;;;;;;;;5027006;28;20081;-65
2021/12/24 08:34:43;;;;;;;2.10;1.13;;;;;;;;;;5027155;28;20051;-64
2021/12/24 08:37:08;;;;;;;2.63;1.55;;;;;;;;;;5028922;28;20038;-63
2021/12/24 08:39:33;;;;;;;2.50;1.20;;;;;;;;;;5023897;28;20033;-63
2021/12/24 08:41:59;;;;;;;5.75;1.58;;;;;;;;;;5028156;28;20021;-63
2021/12/24 08:44:26;;;;;;;2.55;1.33;;;;;;;;;;5018171;28;20022;-64
2021/12/24 08:46:51;;;;;;;1.88;1.08;;;;;;;;;;5028829;28;20087;-64
2021/12/24 08:49:17;;;;;;;1.83;1.10;;;;;;;;;;5021760;28;20279;-64
2021/12/24 08:51:42;;;;;;;2.55;0.93;;;;;;;;;;5028054;28;20032;-64
2021/12/24 08:54:07;;;;;;;2.50;1.13;;;;;;;;;;5027514;28;20025;-64
2021/12/24 08:56:32;;;;;;;1.90;0.90;;;;;;;;;;5026753;28;20018;-64
2021/12/24 08:58:57;;;;;;;2.00;0.90;;;;;;;;;;5024978;28;20068;-63
2021/12/24 09:01:23;;;;;;;2.05;0.95;;;;;;;;;;5027300;28;20052;-64
2021/12/24 09:03:48;;;;;;;2.47;1.10;;;;;;;;;;5027020;28;20075;-64
2021/12/24 09:06:13;;;;;;;2.45;1.10;;;;;;;;;;5028174;28;20049;-63
2021/12/24 09:08:42;;;;;;;3.03;1.17;;;;;;;;;;5024413;28;20068;-65
2021/12/24 09:11:07;;;;;;;1.98;1.10;;;;;;;;;;5028268;28;20496;-64
2021/12/24 09:13:32;;;;;;;2.78;1.25;;;;;;;;;;5023223;28;20056;-64
2021/12/24 09:15:58;;;;;;;2.13;1.00;;;;;;;;;;5021910;28;20045;-65
2021/12/24 09:18:23;;;;;;;2.00;0.93;;;;;;;;;;5027733;28;20018;-65
2021/12/24 09:20:48;;;;;;;1.83;0.85;;;;;;;;;;5027177;28;20049;-64
2021/12/24 09:23:14;;;;;;;2.95;1.25;;;;;;;;;;5016521;28;20151;-64
2021/12/24 09:25:40;;;;;;;1.92;0.90;;;;;;;;;;5016448;28;20371;-65
2021/12/24 09:28:06;;;;;;;2.10;1.15;;;;;;;;;;5028500;28;20018;-64
2021/12/24 09:30:31;;;;;;;1.73;0.93;;;;;;;;;;5026002;28;20477;-64
2021/12/24 09:32:57;;;;;;;1.48;0.90;;;;;;;;;;5028303;28;20079;-64
2021/12/24 09:35:22;;;;;;;1.92;0.95;;;;;;;;;;5028414;28;20026;-64
2021/12/24 09:37:48;;;;;;;1.90;1.08;;;;;;;;;;5028235;28;20053;-65
2021/12/24 09:40:14;;;;;;;1.52;1.00;;;;;;;;;;5028170;28;20062;-64
2021/12/24 09:42:40;;;;;;;3.10;1.02;;;;;;;;;;5018085;28;20036;-64
2021/12/24 09:45:06;;;;;;;1.75;1.05;;;;;;;;;;5027601;28;20025;-64
2021/12/24 09:47:32;;;;;;;1.98;1.00;;;;;;;;;;5027824;28;20022;-63
2021/12/24 09:49:57;;;;;;;2.13;0.85;;;;;;;;;;5028017;28;20033;-64
2021/12/24 09:52:23;;;;;;;2.22;1.10;;;;;;;;;;5035553;28;20073;-65
2021/12/24 09:54:48;;;;;;;2.42;1.20;;;;;;;;;;5017034;28;20602;-64
2021/12/24 09:57:14;;;;;;;1.58;0.93;;;;;;;;;;5028804;28;20029;-64
2021/12/24 09:59:39;;;;;;;2.55;1.10;;;;;;;;;;5032385;28;20029;-64
2021/12/24 10:02:08;;;;;;;1.85;1.10;;;;;;;;;;5029814;28;20041;-63
2021/12/24 10:04:34;;;;;;;3.35;1.40;;;;;;;;;;5022871;28;20389;-64
2021/12/24 10:07:00;;;;;;;2.55;1.30;;;;;;;;;;5031388;28;20050;-64
2021/12/24 10:09:33;;;;;;;3.53;1.40;;;;;;;;;;5030544;28;20433;-63
2021/12/24 10:12:00;;;;;;;4.05;1.33;;;;;;;;;;5030446;28;20080;-65
2021/12/24 10:14:33;;;;;;;2.25;1.30;;;;;;;;;;5030880;28;20021;-66
2021/12/24 10:16:59;;;;;;;3.75;1.52;;;;;;;;;;5030350;28;20054;-64
2021/12/24 10:19:24;;;;;;;3.30;1.60;;;;;;;;;;5031528;28;20037;-64
2021/12/24 10:21:57;;;;;;;2.22;1.23;;;;;;;;;;5034964;28;20392;-63
2021/12/24 10:24:23;;;;;;;1.83;1.30;;;;;;;;;;5029463;28;20033;-64
2021/12/24 10:26:52;;;;;;;2.45;1.42;;;;;;;;;;5027054;28;20057;-63
2021/12/24 10:29:26;;;;;;;3.53;1.50;;;;;;;;;;5031506;28;20445;-64
2021/12/24 10:31:53;;;;;;;2.70;1.40;;;;;;;;;;5024374;28;20075;-64
2021/12/24 10:34:37;;;;;;;3.08;1.48;;;;;;;;;;5024734;28;20112;-63
2021/12/24 10:37:02;;;;;;;2.53;1.38;;;;;;;;;;5019865;28;20065;-65
2021/12/24 10:39:30;;;;;;;3.63;1.80;;;;;;;;;;5030674;28;20048;-64
2021/12/24 10:41:56;;;;;;;2.75;1.30;;;;;;;;;;5022351;28;20033;-64
2021/12/24 10:44:24;;;;;;;4.15;1.58;;;;;;;;;;5026420;28;20473;-64
2021/12/24 10:46:56;;;;;;;3.80;1.30;;;;;;;;;;5024890;28;20033;-64
2021/12/24 10:49:35;;;;;;;2.63;1.50;;;;;;;;;;5029786;28;20021;-64
2021/12/24 10:52:12;;;;;;;2.90;1.40;;;;;;;;;;5017796;28;20053;-63
2021/12/24 10:54:56;;;;;;;2.47;1.50;;;;;;;;;;5024420;28;20033;-65
2021/12/24 10:57:23;;;;;;;3.05;1.50;;;;;;;;;;5022564;28;20033;-63
2021/12/24 10:59:49;;;;;;;2.88;1.20;;;;;;;;;;5020897;28;20385;-64
2021/12/24 11:02:16;;;;;;;3.00;1.55;;;;;;;;;;5025320;28;20029;-63
2021/12/24 11:04:41;;;;;;;3.40;1.80;;;;;;;;;;5024798;28;20697;-65
2021/12/24 11:07:26;;;;;;;3.40;1.42;;;;;;;;;;5021382;28;20049;-63
2021/12/24 11:10:04;;;;;;;3.67;1.40;;;;;;;;;;5021840;28;20034;-64
2021/12/24 11:12:42;;;;;;;2.63;1.40;;;;;;;;;;5020955;28;20030;-65
2021/12/24 11:15:37;;;;;;;1.85;1.38;;;;;;;;;;5028905;28;20037;-63
2021/12/24 11:18:02;;;;;;;2.65;1.50;;;;;;;;;;4995612;28;20049;-64
2021/12/24 11:20:28;;;;;;;3.05;1.75;;;;;;;;;;4991653;28;20030;-64
2021/12/24 11:23:00;;;;;;;3.50;1.52;;;;;;;;;;5006371;28;20042;-64
2021/12/24 11:25:27;;;;;;;2.88;1.50;;;;;;;;;;5005394;28;20033;-65
2021/12/24 11:27:52;;;;;;;3.38;1.60;;;;;;;;;;5000853;28;20422;-65
2021/12/24 11:30:18;;;;;;;5.80;1.67;;;;;;;;;;4988639;28;20062;-63
2021/12/24 11:32:44;;;;;;;3.08;1.52;;;;;;;;;;5004425;28;20482;-64
2021/12/24 11:35:11;;;;;;;3.92;1.50;;;;;;;;;;5006648;28;20084;-64
2021/12/24 11:37:36;;;;;;;3.15;1.67;;;;;;;;;;5004636;28;20125;-64
2021/12/24 11:40:03;;;;;;;2.70;1.60;;;;;;;;;;5004725;28;20188;-64
2021/12/24 11:42:31;;;;;;;3.05;1.40;;;;;;;;;;5001943;28;20042;-63
2021/12/24 11:44:57;;;;;;;3.67;1.45;;;;;;;;;;4995624;28;20030;-65
2021/12/24 11:47:22;;;;;;;3.38;1.55;;;;;;;;;;4997554;28;20038;-63
2021/12/24 11:49:48;;;;;;;3.78;1.75;;;;;;;;;;4993680;28;20030;-63
2021/12/24 11:52:13;;;;;;;4.05;1.50;;;;;;;;;;5002641;28;20133;-64
2021/12/24 11:54:38;;;;;;;2.42;1.40;;;;;;;;;;5018675;28;20057;-64
2021/12/24 11:57:14;;;;;;;2.55;1.67;;;;;;;;;;5023703;28;20086;-64
2021/12/24 11:59:39;;;;;;;2.72;1.60;;;;;;;;;;5027263;28;20025;-64
2021/12/24 12:02:06;;;;;;;3.60;1.70;;;;;;;;;;5025638;28;20028;-63
2021/12/24 12:04:32;;;;;;;2.75;1.40;;;;;;;;;;5028698;28;20033;-63
2021/12/24 12:07:16;;;;;;;5.10;1.60;;;;;;;;;;5020164;28;20391;-64
2021/12/24 12:09:42;;;;;;;2.88;1.70;;;;;;;;;;5028934;28;20636;-64
2021/12/24 12:12:09;;;;;;;3.50;1.50;;;;;;;;;;5023440;28;20175;-63
2021/12/24 12:14:37;;;;;;;4.43;1.50;;;;;;;;;;5021792;28;20025;-64
2021/12/24 12:17:06;;;;;;;2.72;1.55;;;;;;;;;;5025445;28;20056;-64
2021/12/24 12:22:20;;;;;;;2.30;1.40;;;;;;;;;;5027068;28;20039;-64
2021/12/24 12:27:27;;;;;;;3.53;1.40;;;;;;;;;;5024702;28;20045;-65
2021/12/24 12:29:52;;;;;;;4.22;1.35;;;;;;;;;;5022300;28;20067;-64
2021/12/24 12:32:17;;;;;;;2.28;1.08;;;;;;;;;;5027207;28;20500;-64
2021/12/24 12:34:43;;;;;;;2.38;1.27;;;;;;;;;;5027479;28;20472;-64
2021/12/24 12:37:11;;;;;;;3.75;1.55;;;;;;;;;;5028797;28;20028;-63
2021/12/24 12:39:36;;;;;;;1.92;1.15;;;;;;;;;;5026750;28;20493;-64
2021/12/24 12:42:02;;;;;;;2.20;1.27;;;;;;;;;;5023315;28;20116;-64
2021/12/24 12:44:28;;;;;;;2.72;1.15;;;;;;;;;;5018506;28;20457;-65
2021/12/24 12:47:07;;;;;;;2.67;1.40;;;;;;;;;;5026714;28;20025;-64
2021/12/24 12:49:34;;;;;;;2.53;1.50;;;;;;;;;;5025379;28;20028;-64
2021/12/24 12:52:00;;;;;;;3.28;1.40;;;;;;;;;;5022675;28;20397;-63
2021/12/24 12:54:31;;;;;;;2.92;1.23;;;;;;;;;;5021806;28;20037;-63
2021/12/24 12:57:14;;;;;;;2.70;1.40;;;;;;;;;;5019008;28;20079;-62
2021/12/24 12:59:40;;;;;;;4.15;1.23;;;;;;;;;;5021457;28;20068;-64
2021/12/24 13:02:06;;;;;;;2.67;1.10;;;;;;;;;;5023245;28;20057;-64
2021/12/24 13:04:31;;;;;;;2.25;1.23;;;;;;;;;;5025885;28;20426;-63
2021/12/24 13:06:57;;;;;;;6.10;2.38;;;;;;;;;;5024199;28;20047;-63
2021/12/24 13:09:33;;;;;;;2.13;1.20;;;;;;;;;;5020503;28;20480;-63
2021/12/24 13:11:59;;;;;;;2.83;1.30;;;;;;;;;;5027224;28;20025;-63
2021/12/24 13:14:25;;;;;;;3.38;1.40;;;;;;;;;;5026781;28;20366;-64
2021/12/24 13:17:18;;;;;;;2.72;1.20;;;;;;;;;;5027616;28;20094;-64
2021/12/24 13:25:14;;;;;;;2.78;1.30;;;;;;;;;;5027082;28;20079;-64
2021/12/24 13:27:39;;;;;;;2.22;1.30;;;;;;;;;;5023181;28;20118;-63
2021/12/24 13:30:07;;;;;;;2.20;1.00;;;;;;;;;;5021823;28;20057;-63
2021/12/24 13:32:40;;;;;;;2.63;1.30;;;;;;;;;;5026334;28;20056;-64
2021/12/24 13:35:05;;;;;;;2.00;1.30;;;;;;;;;;5022114;28;20021;-62
2021/12/24 13:37:32;;;;;;;2.53;1.30;;;;;;;;;;5025523;28;20489;-63
2021/12/24 13:39:57;;;;;;;2.42;1.33;;;;;;;;;;5029622;28;20029;-62
2021/12/24 13:42:22;;;;;;;2.15;1.20;;;;;;;;;;5026855;28;20118;-63
2021/12/24 13:44:51;;;;;;;2.50;1.30;;;;;;;;;;5020745;28;20120;-64
2021/12/24 13:47:40;;;;;;;2.50;1.30;;;;;;;;;;5023535;28;20457;-62
2021/12/24 13:55:29;;;;;;;2.35;1.30;;;;;;;;;;5020394;28;20028;-62
2021/12/24 13:58:04;;;;;;;2.88;1.20;;;;;;;;;;5024991;28;20057;-63
2021/12/24 14:00:30;;;;;;;2.30;1.17;;;;;;;;;;5023045;28;20034;-64
2021/12/24 14:02:57;;;;;;;4.25;1.33;;;;;;;;;;5028101;28;20022;-63
2021/12/24 14:05:23;;;;;;;2.22;1.40;;;;;;;;;;5022370;28;20537;-64
2021/12/24 14:08:09;;;;;;;2.13;1.30;;;;;;;;;;5024914;28;20126;-63
2021/12/24 14:10:36;;;;;;;4.97;2.78;;;;;;;;;;5010682;28;20079;-64
2021/12/24 14:13:09;;;;;;;4.25;2.65;;;;;;;;;;5029302;28;20074;-62
2021/12/24 14:15:46;;;;;;;4.40;1.70;;;;;;;;;;5022204;28;20028;-63
2021/12/24 14:18:32;;;;;;;4.50;2.35;;;;;;;;;;5024156;28;20026;-63
2021/12/24 14:21:45;;;;;;;2.83;1.60;;;;;;;;;;5028154;28;20037;-64
2021/12/24 14:23:46;;;;;;;4.60;2.70;;;;;;;;;;5024732;28;20500;-62
2021/12/24 14:26:12;;;;;;;4.82;2.78;;;;;;;;;;5027028;28;20041;-64
2021/12/24 14:28:37;;;;;;;2.35;1.48;;;;;;;;;;5022549;28;20373;-64
2021/12/24 14:31:04;;;;;;;2.17;1.30;;;;;;;;;;5024012;28;20048;-62
2021/12/24 14:33:33;;;;;;;2.75;1.23;;;;;;;;;;5023821;28;20044;-63
2021/12/24 14:35:58;;;;;;;3.40;1.70;;;;;;;;;;5024488;28;20017;-62
2021/12/24 14:38:24;;;;;;;6.32;3.70;;;;;;;;;;5021688;28;20109;-63
2021/12/24 14:40:56;;;;;;;10.95;6.03;;;;;;;;;;5029975;28;20115;-63
2021/12/24 14:43:21;;;;;;;2.63;1.55;;;;;;;;;;5024409;28;20025;-62
2021/12/24 14:45:47;;;;;;;4.60;1.48;;;;;;;;;;5022067;28;20130;-63
2021/12/24 14:48:14;;;;;;;4.95;2.20;;;;;;;;;;5027296;28;20121;-62
2021/12/24 14:50:48;;;;;;;5.30;2.20;;;;;;;;;;5024960;28;20032;-63
2021/12/24 14:53:17;;;;;;;2.00;1.27;;;;;;;;;;5023901;28;20030;-64
2021/12/24 14:55:57;;;;;;;3.92;1.80;;;;;;;;;;5025539;28;20029;-62
2021/12/24 14:58:34;;;;;;;5.85;2.78;;;;;;;;;;5029385;28;20033;-63
2021/12/24 15:01:05;;;;;;;4.53;2.50;;;;;;;;;;5029983;28;20478;-62
2021/12/24 15:03:32;;;;;;;2.90;1.50;;;;;;;;;;5030223;28;20107;-62
2021/12/24 15:05:58;;;;;;;3.65;1.73;;;;;;;;;;5025022;28;20042;-63
2021/12/24 15:08:25;;;;;;;2.70;1.17;;;;;;;;;;5027203;28;20094;-62
2021/12/24 15:10:58;;;;;;;4.20;1.70;;;;;;;;;;5025104;28;20816;-63
2021/12/24 15:13:25;;;;;;;2.00;1.20;;;;;;;;;;5030009;28;20073;-63
2021/12/24 15:15:51;;;;;;;2.42;1.10;;;;;;;;;;5015759;28;20025;-63
2021/12/24 15:18:16;;;;;;;2.05;1.10;;;;;;;;;;5025554;28;20107;-63
2021/12/24 15:20:42;;;;;;;2.33;1.00;;;;;;;;;;5030304;28;20036;-63
2021/12/24 15:23:07;;;;;;;2.10;1.10;;;;;;;;;;5028485;28;20029;-62
2021/12/24 15:25:32;;;;;;;2.05;1.10;;;;;;;;;;5024463;28;20100;-63
2021/12/24 15:28:01;;;;;;;2.22;1.23;;;;;;;;;;5021058;28;20098;-62
2021/12/24 15:30:26;;;;;;;1.73;1.00;;;;;;;;;;5030585;28;20017;-63
2021/12/24 15:32:51;;;;;;;2.53;1.10;;;;;;;;;;5026390;28;20044;-63
2021/12/24 15:35:17;;;;;;;1.65;0.98;;;;;;;;;;5028166;28;20022;-64
2021/12/24 15:37:42;;;;;;;3.42;1.10;;;;;;;;;;5028097;28;20064;-63
2021/12/24 15:40:07;;;;;;;2.05;1.17;;;;;;;;;;5015701;28;20533;-63
2021/12/24 15:42:33;;;;;;;1.95;1.20;;;;;;;;;;5028589;28;20022;-63
2021/12/24 15:44:58;;;;;;;2.53;1.20;;;;;;;;;;5022634;28;20043;-62
2021/12/24 15:47:23;;;;;;;2.53;1.33;;;;;;;;;;5020663;28;20097;-63
2021/12/24 15:49:48;;;;;;;2.35;1.30;;;;;;;;;;5022195;28;20107;-64
2021/12/24 15:52:13;;;;;;;2.40;1.35;;;;;;;;;;5032514;28;20105;-63
2021/12/24 15:54:39;;;;;;;1.98;1.23;;;;;;;;;;5026979;28;20064;-63
2021/12/24 15:57:04;;;;;;;2.97;1.10;;;;;;;;;;5026548;28;20760;-63
2021/12/24 15:59:31;;;;;;;2.45;1.30;;;;;;;;;;5024566;28;20473;-63
2021/12/24 16:01:58;;;;;;;2.58;1.10;;;;;;;;;;5022385;28;20052;-63
2021/12/24 16:04:23;;;;;;;2.90;1.40;;;;;;;;;;5022564;28;20548;-64
2021/12/24 16:06:48;;;;;;;2.72;1.30;;;;;;;;;;5023610;28;20132;-63
2021/12/24 16:09:14;;;;;;;1.92;1.20;;;;;;;;;;5021012;28;20025;-63
2021/12/24 16:11:40;;;;;;;2.38;1.40;;;;;;;;;;5027904;28;20354;-63
2021/12/24 16:14:05;;;;;;;2.53;1.40;;;;;;;;;;5027835;28;20091;-64
2021/12/24 16:16:30;;;;;;;3.17;1.50;;;;;;;;;;5027758;28;20017;-63
2021/12/24 16:18:55;;;;;;;2.47;1.40;;;;;;;;;;5016650;28;20029;-63
2021/12/24 16:21:20;;;;;;;4.30;1.73;;;;;;;;;;5026186;28;20192;-63
2021/12/24 16:23:46;;;;;;;3.80;1.60;;;;;;;;;;5023707;28;20369;-64
2021/12/24 16:26:11;;;;;;;2.40;1.48;;;;;;;;;;5021556;28;20080;-63
2021/12/24 16:28:36;;;;;;;4.13;1.73;;;;;;;;;;5021375;28;20105;-63
2021/12/24 16:31:02;;;;;;;5.43;2.08;;;;;;;;;;5018053;28;20447;-63
2021/12/24 16:33:27;;;;;;;3.85;1.90;;;;;;;;;;5014112;28;20037;-64
2021/12/24 16:35:53;;;;;;;3.30;1.90;;;;;;;;;;5026979;28;20029;-63